map of SKO home
Great Circle Mapper logo
SKO - Airport
Location
City:  Sokoto, Nigeria
Name:Sadiq Abubakar III International Airport
ICAO / IATA:DNSO / SKO

Details
Type:Airport (Aerodrome, Airfield)
Use:International (customs port of entry)
Latitude:1254'59"N (12.916322)
Longitude:512'26"E (5.207189)
Datum:WGS 1984
Elevation:1010 ft (308 m)
Runways:1
Longest:9844 × 197 ft (3000 × 60 m), paved

Time
Time Zone:UTC+1
Local Time:

Weather
METAR:DNSO 241200Z 20016KT 9999 FEW016 39/22 Q1009

Related Locations
Nearby:
Farthest:WLS: 12351 mi / 19877 km
Wallis Island [Hihifo], WF

Find:

   beyond  
but within

Other Information
Maps:
NOTAMs:
Links:
Sources:

  
flag of Nigeria   

Sectional Chart

Flight Planning
at skyvector.com

Satellite Image

Google Maps Satellite View

 

Copyright © 2004-2014 Karl L. Swartz. All rights reserved.
The Great Circle Mapper name and logo are trademarks of the Great Circle Mapper.
All other trademarks mentioned herein belong to their respective owners.
Please see credits for attibutions and further copyright information.

  Follow gcmap on Facebook Follow gcmap on Twitter

hCard Microformat

Geo Microformat